sensor_id;sensor_type;location;lat;lon;timestamp;temperature;humidity
71098;SHT35;58754;47.622;-2.986;2023-02-01T00:01:10;12.75;60.99
71098;SHT35;58754;47.622;-2.986;2023-02-01T00:03:36;12.74;60.99
71098;SHT35;58754;47.622;-2.986;2023-02-01T00:06:02;12.77;61.01
71098;SHT35;58754;47.622;-2.986;2023-02-01T00:08:28;12.75;61.01
71098;SHT35;58754;47.622;-2.986;2023-02-01T00:11:06;12.79;61.01
71098;SHT35;58754;47.622;-2.986;2023-02-01T00:13:34;12.78;60.98
71098;SHT35;58754;47.622;-2.986;2023-02-01T00:16:20;12.75;61.03
71098;SHT35;58754;47.622;-2.986;2023-02-01T00:18:48;12.75;61.02
71098;SHT35;58754;47.622;-2.986;2023-02-01T00:21:16;12.78;61.04
71098;SHT35;58754;47.622;-2.986;2023-02-01T00:23:42;12.77;61.03
71098;SHT35;58754;47.622;-2.986;2023-02-01T00:26:18;12.77;61.06
71098;SHT35;58754;47.622;-2.986;2023-02-01T00:28:45;12.75;61.05
71098;SHT35;58754;47.622;-2.986;2023-02-01T00:31:11;12.75;61.10
71098;SHT35;58754;47.622;-2.986;2023-02-01T00:33:37;12.79;61.05
71098;SHT35;58754;47.622;-2.986;2023-02-01T00:36:05;12.78;61.09
71098;SHT35;58754;47.622;-2.986;2023-02-01T00:38:32;12.77;61.11
71098;SHT35;58754;47.622;-2.986;2023-02-01T00:41:20;12.77;61.14
71098;SHT35;58754;47.622;-2.986;2023-02-01T00:43:47;12.77;61.10
71098;SHT35;58754;47.622;-2.986;2023-02-01T00:46:15;12.79;61.10
71098;SHT35;58754;47.622;-2.986;2023-02-01T00:48:42;12.78;61.14
71098;SHT35;58754;47.622;-2.986;2023-02-01T00:51:14;12.78;61.10
71098;SHT35;58754;47.622;-2.986;2023-02-01T00:53:40;12.75;61.13
71098;SHT35;58754;47.622;-2.986;2023-02-01T00:56:07;12.75;61.11
71098;SHT35;58754;47.622;-2.986;2023-02-01T00:58:33;12.78;61.16
71098;SHT35;58754;47.622;-2.986;2023-02-01T01:01:05;12.78;61.11
71098;SHT35;58754;47.622;-2.986;2023-02-01T01:03:32;12.78;61.12
71098;SHT35;58754;47.622;-2.986;2023-02-01T01:06:02;12.79;61.10
71098;SHT35;58754;47.622;-2.986;2023-02-01T01:08:28;12.81;61.11
71098;SHT35;58754;47.622;-2.986;2023-02-01T01:10:54;12.78;61.12
71098;SHT35;58754;47.622;-2.986;2023-02-01T01:13:20;12.81;61.12
71098;SHT35;58754;47.622;-2.986;2023-02-01T01:15:45;12.77;61.14
71098;SHT35;58754;47.622;-2.986;2023-02-01T01:18:11;12.81;61.17
71098;SHT35;58754;47.622;-2.986;2023-02-01T01:20:39;12.77;61.13
71098;SHT35;58754;47.622;-2.986;2023-02-01T01:23:06;12.82;61.14
71098;SHT35;58754;47.622;-2.986;2023-02-01T01:25:32;12.79;61.10
71098;SHT35;58754;47.622;-2.986;2023-02-01T01:27:58;12.78;61.11
71098;SHT35;58754;47.622;-2.986;2023-02-01T01:30:23;12.81;61.09
71098;SHT35;58754;47.622;-2.986;2023-02-01T01:32:49;12.79;61.13
71098;SHT35;58754;47.622;-2.986;2023-02-01T01:35:15;12.79;61.10
71098;SHT35;58754;47.622;-2.986;2023-02-01T01:37:40;12.79;61.10
71098;SHT35;58754;47.622;-2.986;2023-02-01T01:40:07;12.81;61.07
71098;SHT35;58754;47.622;-2.986;2023-02-01T01:42:43;12.82;61.11
71098;SHT35;58754;47.622;-2.986;2023-02-01T01:45:25;12.79;61.09
71098;SHT35;58754;47.622;-2.986;2023-02-01T01:47:58;12.79;61.09
71098;SHT35;58754;47.622;-2.986;2023-02-01T01:50:30;12.81;61.13
71098;SHT35;58754;47.622;-2.986;2023-02-01T01:53:01;12.81;61.08
71098;SHT35;58754;47.622;-2.986;2023-02-01T01:55:32;12.82;61.11
71098;SHT35;58754;47.622;-2.986;2023-02-01T01:58:10;12.81;61.09
71098;SHT35;58754;47.622;-2.986;2023-02-01T02:00:38;12.79;61.06
71098;SHT35;58754;47.622;-2.986;2023-02-01T02:03:11;12.79;61.05
71098;SHT35;58754;47.622;-2.986;2023-02-01T02:05:39;12.78;61.05
71098;SHT35;58754;47.622;-2.986;2023-02-01T02:08:04;12.78;61.02
71098;SHT35;58754;47.622;-2.986;2023-02-01T02:10:31;12.81;61.00
71098;SHT35;58754;47.622;-2.986;2023-02-01T02:13:16;12.84;60.99
71098;SHT35;58754;47.622;-2.986;2023-02-01T02:15:50;12.78;60.97
71098;SHT35;58754;47.622;-2.986;2023-02-01T02:18:40;12.78;60.95
71098;SHT35;58754;47.622;-2.986;2023-02-01T02:21:14;12.81;61.00
71098;SHT35;58754;47.622;-2.986;2023-02-01T02:24:09;12.79;60.96
71098;SHT35;58754;47.622;-2.986;2023-02-01T02:34:46;12.78;60.89
71098;SHT35;58754;47.622;-2.986;2023-02-01T02:37:42;12.79;60.86
71098;SHT35;58754;47.622;-2.986;2023-02-01T02:49:12;12.79;60.84
71098;SHT35;58754;47.622;-2.986;2023-02-01T02:51:55;12.77;60.83
71098;SHT35;58754;47.622;-2.986;2023-02-01T02:54:45;12.77;60.80
71098;SHT35;58754;47.622;-2.986;2023-02-01T03:00:16;12.75;60.79
71098;SHT35;58754;47.622;-2.986;2023-02-01T03:03:02;12.78;60.75
71098;SHT35;58754;47.622;-2.986;2023-02-01T03:05:48;12.75;60.76
71098;SHT35;58754;47.622;-2.986;2023-02-01T03:08:24;12.78;60.74
71098;SHT35;58754;47.622;-2.986;2023-02-01T03:11:09;12.75;60.75
71098;SHT35;58754;47.622;-2.986;2023-02-01T03:16:24;12.77;60.73
71098;SHT35;58754;47.622;-2.986;2023-02-01T03:21:37;12.78;60.69
71098;SHT35;58754;47.622;-2.986;2023-02-01T03:24:15;12.78;60.66
71098;SHT35;58754;47.622;-2.986;2023-02-01T03:26:48;12.75;60.69
71098;SHT35;58754;47.622;-2.986;2023-02-01T03:29:27;12.78;60.67
71098;SHT35;58754;47.622;-2.986;2023-02-01T03:31:55;12.77;60.66
71098;SHT35;58754;47.622;-2.986;2023-02-01T03:34:21;12.75;60.61
71098;SHT35;58754;47.622;-2.986;2023-02-01T03:37:01;12.75;60.66
71098;SHT35;58754;47.622;-2.986;2023-02-01T03:39:39;12.78;60.59
71098;SHT35;58754;47.622;-2.986;2023-02-01T03:42:23;12.74;60.61
71098;SHT35;58754;47.622;-2.986;2023-02-01T03:45:01;12.75;60.63
71098;SHT35;58754;47.622;-2.986;2023-02-01T03:47:30;12.75;60.60
71098;SHT35;58754;47.622;-2.986;2023-02-01T03:50:03;12.77;60.59
71098;SHT35;58754;47.622;-2.986;2023-02-01T03:52:43;12.77;60.59
71098;SHT35;58754;47.622;-2.986;2023-02-01T03:55:13;12.74;60.57
71098;SHT35;58754;47.622;-2.986;2023-02-01T03:57:44;12.75;60.55
71098;SHT35;58754;47.622;-2.986;2023-02-01T04:00:18;12.75;60.57
71098;SHT35;58754;47.622;-2.986;2023-02-01T04:02:45;12.78;60.56
71098;SHT35;58754;47.622;-2.986;2023-02-01T04:05:11;12.77;60.56
71098;SHT35;58754;47.622;-2.986;2023-02-01T04:07:37;12.78;60.54
71098;SHT35;58754;47.622;-2.986;2023-02-01T04:10:03;12.75;60.59
71098;SHT35;58754;47.622;-2.986;2023-02-01T04:12:29;12.78;60.50
71098;SHT35;58754;47.622;-2.986;2023-02-01T04:14:55;12.79;60.54
71098;SHT35;58754;47.622;-2.986;2023-02-01T04:17:20;12.77;60.50
71098;SHT35;58754;47.622;-2.986;2023-02-01T04:19:46;12.79;60.52
71098;SHT35;58754;47.622;-2.986;2023-02-01T04:22:12;12.77;60.51
71098;SHT35;58754;47.622;-2.986;2023-02-01T04:24:38;12.77;60.47
71098;SHT35;58754;47.622;-2.986;2023-02-01T04:27:04;12.78;60.49
71098;SHT35;58754;47.622;-2.986;2023-02-01T04:29:29;12.78;60.46
71098;SHT35;58754;47.622;-2.986;2023-02-01T04:31:55;12.78;60.47
71098;SHT35;58754;47.622;-2.986;2023-02-01T04:34:21;12.79;60.48
71098;SHT35;58754;47.622;-2.986;2023-02-01T04:36:48;12.79;60.46
71098;SHT35;58754;47.622;-2.986;2023-02-01T04:39:13;12.77;60.44
71098;SHT35;58754;47.622;-2.986;2023-02-01T04:41:39;12.75;60.44
71098;SHT35;58754;47.622;-2.986;2023-02-01T04:44:05;12.78;60.48
71098;SHT35;58754;47.622;-2.986;2023-02-01T04:46:31;12.77;60.45
71098;SHT35;58754;47.622;-2.986;2023-02-01T04:48:57;12.77;60.42
71098;SHT35;58754;47.622;-2.986;2023-02-01T04:51:23;12.77;60.44
71098;SHT35;58754;47.622;-2.986;2023-02-01T04:53:48;12.77;60.42
71098;SHT35;58754;47.622;-2.986;2023-02-01T04:56:14;12.79;60.43
71098;SHT35;58754;47.622;-2.986;2023-02-01T04:58:40;12.78;60.41
71098;SHT35;58754;47.622;-2.986;2023-02-01T05:01:06;12.78;60.43
71098;SHT35;58754;47.622;-2.986;2023-02-01T05:03:33;12.78;60.41
71098;SHT35;58754;47.622;-2.986;2023-02-01T05:05:59;12.75;60.38
71098;SHT35;58754;47.622;-2.986;2023-02-01T05:08:26;12.78;60.40
71098;SHT35;58754;47.622;-2.986;2023-02-01T05:10:52;12.78;60.36
71098;SHT35;58754;47.622;-2.986;2023-02-01T05:13:18;12.77;60.37
71098;SHT35;58754;47.622;-2.986;2023-02-01T05:16:02;12.77;60.39
71098;SHT35;58754;47.622;-2.986;2023-02-01T05:18:28;12.78;60.38
71098;SHT35;58754;47.622;-2.986;2023-02-01T05:20:54;12.78;60.39
71098;SHT35;58754;47.622;-2.986;2023-02-01T05:23:19;12.78;60.36
71098;SHT35;58754;47.622;-2.986;2023-02-01T05:25:45;12.77;60.42
71098;SHT35;58754;47.622;-2.986;2023-02-01T05:28:11;12.77;60.34
71098;SHT35;58754;47.622;-2.986;2023-02-01T05:30:37;12.78;60.35
71098;SHT35;58754;47.622;-2.986;2023-02-01T05:33:03;12.79;60.38
71098;SHT35;58754;47.622;-2.986;2023-02-01T05:35:29;12.77;60.34
71098;SHT35;58754;47.622;-2.986;2023-02-01T05:37:54;12.79;60.36
71098;SHT35;58754;47.622;-2.986;2023-02-01T05:40:20;12.77;60.33
71098;SHT35;58754;47.622;-2.986;2023-02-01T05:42:46;12.78;60.35
71098;SHT35;58754;47.622;-2.986;2023-02-01T05:45:12;12.78;60.34
71098;SHT35;58754;47.622;-2.986;2023-02-01T05:47:37;12.77;60.32
71098;SHT35;58754;47.622;-2.986;2023-02-01T05:50:04;12.78;60.33
71098;SHT35;58754;47.622;-2.986;2023-02-01T05:52:30;12.78;60.30
71098;SHT35;58754;47.622;-2.986;2023-02-01T05:54:56;12.78;60.31
71098;SHT35;58754;47.622;-2.986;2023-02-01T05:57:21;12.75;60.32
71098;SHT35;58754;47.622;-2.986;2023-02-01T05:59:47;12.78;60.32
71098;SHT35;58754;47.622;-2.986;2023-02-01T06:02:15;12.77;60.31
71098;SHT35;58754;47.622;-2.986;2023-02-01T06:04:40;12.78;60.29
71098;SHT35;58754;47.622;-2.986;2023-02-01T06:07:07;12.78;60.29
71098;SHT35;58754;47.622;-2.986;2023-02-01T06:09:35;12.77;60.32
71098;SHT35;58754;47.622;-2.986;2023-02-01T06:12:00;12.79;60.31
71098;SHT35;58754;47.622;-2.986;2023-02-01T06:14:27;12.78;60.29
71098;SHT35;58754;47.622;-2.986;2023-02-01T06:16:53;12.79;60.28
71098;SHT35;58754;47.622;-2.986;2023-02-01T06:19:19;12.77;60.28
71098;SHT35;58754;47.622;-2.986;2023-02-01T06:21:45;12.75;60.28
71098;SHT35;58754;47.622;-2.986;2023-02-01T06:24:12;12.79;60.30
71098;SHT35;58754;47.622;-2.986;2023-02-01T06:26:38;12.77;60.27
71098;SHT35;58754;47.622;-2.986;2023-02-01T06:29:06;12.75;60.29
71098;SHT35;58754;47.622;-2.986;2023-02-01T06:31:32;12.77;60.24
71098;SHT35;58754;47.622;-2.986;2023-02-01T06:33:58;12.77;60.28
71098;SHT35;58754;47.622;-2.986;2023-02-01T06:36:24;12.79;60.27
71098;SHT35;58754;47.622;-2.986;2023-02-01T06:38:50;12.77;60.26
71098;SHT35;58754;47.622;-2.986;2023-02-01T06:41:16;12.77;60.24
71098;SHT35;58754;47.622;-2.986;2023-02-01T06:43:41;12.77;60.22
71098;SHT35;58754;47.622;-2.986;2023-02-01T06:46:11;12.77;60.22
71098;SHT35;58754;47.622;-2.986;2023-02-01T06:48:37;12.78;60.24
71098;SHT35;58754;47.622;-2.986;2023-02-01T06:51:03;12.75;60.25
71098;SHT35;58754;47.622;-2.986;2023-02-01T06:53:30;12.77;60.21
71098;SHT35;58754;47.622;-2.986;2023-02-01T06:55:58;12.79;60.21
71098;SHT35;58754;47.622;-2.986;2023-02-01T06:58:24;12.75;60.19
71098;SHT35;58754;47.622;-2.986;2023-02-01T07:00:52;12.77;60.18
71098;SHT35;58754;47.622;-2.986;2023-02-01T07:03:19;12.78;60.22
71098;SHT35;58754;47.622;-2.986;2023-02-01T07:05:44;12.79;60.19
71098;SHT35;58754;47.622;-2.986;2023-02-01T07:08:10;12.78;60.17
71098;SHT35;58754;47.622;-2.986;2023-02-01T07:10:37;12.77;60.17
71098;SHT35;58754;47.622;-2.986;2023-02-01T07:13:03;12.78;60.17
71098;SHT35;58754;47.622;-2.986;2023-02-01T07:15:28;12.77;60.19
71098;SHT35;58754;47.622;-2.986;2023-02-01T07:17:55;12.78;60.13
71098;SHT35;58754;47.622;-2.986;2023-02-01T07:20:21;12.81;60.15
71098;SHT35;58754;47.622;-2.986;2023-02-01T07:22:47;12.78;60.16
71098;SHT35;58754;47.622;-2.986;2023-02-01T07:25:13;12.77;60.13
71098;SHT35;58754;47.622;-2.986;2023-02-01T07:27:39;12.79;60.14
71098;SHT35;58754;47.622;-2.986;2023-02-01T07:30:05;12.81;60.13
71098;SHT35;58754;47.622;-2.986;2023-02-01T07:32:31;12.77;60.14
71098;SHT35;58754;47.622;-2.986;2023-02-01T07:34:58;12.79;60.11
71098;SHT35;58754;47.622;-2.986;2023-02-01T07:37:24;12.78;60.09
71098;SHT35;58754;47.622;-2.986;2023-02-01T07:39:53;12.77;60.14
71098;SHT35;58754;47.622;-2.986;2023-02-01T07:42:18;12.78;60.10
71098;SHT35;58754;47.622;-2.986;2023-02-01T07:44:44;12.78;60.15
71098;SHT35;58754;47.622;-2.986;2023-02-01T07:47:10;12.81;60.08
71098;SHT35;58754;47.622;-2.986;2023-02-01T07:49:35;12.75;60.12
71098;SHT35;58754;47.622;-2.986;2023-02-01T07:52:02;12.77;60.12
71098;SHT35;58754;47.622;-2.986;2023-02-01T07:54:27;12.78;60.10
71098;SHT35;58754;47.622;-2.986;2023-02-01T07:56:53;12.77;60.10
71098;SHT35;58754;47.622;-2.986;2023-02-01T07:59:19;12.77;60.12
71098;SHT35;58754;47.622;-2.986;2023-02-01T08:01:44;12.75;60.12
71098;SHT35;58754;47.622;-2.986;2023-02-01T08:04:11;12.78;60.11
71098;SHT35;58754;47.622;-2.986;2023-02-01T08:06:38;12.77;60.10
71098;SHT35;58754;47.622;-2.986;2023-02-01T08:09:05;12.75;60.05
71098;SHT35;58754;47.622;-2.986;2023-02-01T08:11:31;12.75;60.09
71098;SHT35;58754;47.622;-2.986;2023-02-01T08:13:58;12.78;60.07
71098;SHT35;58754;47.622;-2.986;2023-02-01T08:16:24;12.77;60.09
71098;SHT35;58754;47.622;-2.986;2023-02-01T08:18:51;12.75;60.08
71098;SHT35;58754;47.622;-2.986;2023-02-01T08:21:26;12.79;60.06
71098;SHT35;58754;47.622;-2.986;2023-02-01T08:23:53;12.78;60.08
71098;SHT35;58754;47.622;-2.986;2023-02-01T08:26:21;12.75;60.07
71098;SHT35;58754;47.622;-2.986;2023-02-01T08:28:53;12.75;60.06
71098;SHT35;58754;47.622;-2.986;2023-02-01T08:31:21;12.77;60.07
71098;SHT35;58754;47.622;-2.986;2023-02-01T08:33:51;12.77;60.08
71098;SHT35;58754;47.622;-2.986;2023-02-01T08:36:18;12.77;60.05
71098;SHT35;58754;47.622;-2.986;2023-02-01T08:38:44;12.77;60.04
71098;SHT35;58754;47.622;-2.986;2023-02-01T08:41:14;12.77;60.03
71098;SHT35;58754;47.622;-2.986;2023-02-01T08:43:40;12.77;60.04
71098;SHT35;58754;47.622;-2.986;2023-02-01T08:46:07;12.78;60.06
71098;SHT35;58754;47.622;-2.986;2023-02-01T08:48:34;12.78;60.08
71098;SHT35;58754;47.622;-2.986;2023-02-01T08:51:08;12.75;60.08
71098;SHT35;58754;47.622;-2.986;2023-02-01T08:53:36;12.77;60.06
71098;SHT35;58754;47.622;-2.986;2023-02-01T08:56:03;12.78;60.08
71098;SHT35;58754;47.622;-2.986;2023-02-01T08:58:29;12.77;60.07
71098;SHT35;58754;47.622;-2.986;2023-02-01T09:00:55;12.79;60.07
71098;SHT35;58754;47.622;-2.986;2023-02-01T09:03:21;12.77;60.05
71098;SHT35;58754;47.622;-2.986;2023-02-01T09:05:47;12.77;60.07
71098;SHT35;58754;47.622;-2.986;2023-02-01T09:08:13;12.79;60.07
71098;SHT35;58754;47.622;-2.986;2023-02-01T09:10:41;12.75;60.06
71098;SHT35;58754;47.622;-2.986;2023-02-01T09:13:08;12.75;60.04
71098;SHT35;58754;47.622;-2.986;2023-02-01T09:15:35;12.78;60.04
71098;SHT35;58754;47.622;-2.986;2023-02-01T09:18:00;12.79;60.01
71098;SHT35;58754;47.622;-2.986;2023-02-01T09:20:26;12.79;60.05
71098;SHT35;58754;47.622;-2.986;2023-02-01T09:22:54;12.78;60.04
71098;SHT35;58754;47.622;-2.986;2023-02-01T09:25:20;12.78;60.05
71098;SHT35;58754;47.622;-2.986;2023-02-01T09:27:45;12.79;60.06
71098;SHT35;58754;47.622;-2.986;2023-02-01T09:30:11;12.78;60.02
71098;SHT35;58754;47.622;-2.986;2023-02-01T09:32:37;12.78;60.01
71098;SHT35;58754;47.622;-2.986;2023-02-01T09:35:03;12.77;60.03
71098;SHT35;58754;47.622;-2.986;2023-02-01T09:37:29;12.78;60.04
71098;SHT35;58754;47.622;-2.986;2023-02-01T09:39:54;12.78;59.99
71098;SHT35;58754;47.622;-2.986;2023-02-01T09:45:32;12.79;60.04
71098;SHT35;58754;47.622;-2.986;2023-02-01T09:48:13;12.78;60.00
71098;SHT35;58754;47.622;-2.986;2023-02-01T09:50:46;12.77;60.06
71098;SHT35;58754;47.622;-2.986;2023-02-01T09:53:21;12.79;60.00
71098;SHT35;58754;47.622;-2.986;2023-02-01T09:55:50;12.77;60.06
71098;SHT35;58754;47.622;-2.986;2023-02-01T10:00:58;12.79;60.02
71098;SHT35;58754;47.622;-2.986;2023-02-01T10:03:28;12.78;59.99
71098;SHT35;58754;47.622;-2.986;2023-02-01T10:16:53;12.78;60.03
71098;SHT35;58754;47.622;-2.986;2023-02-01T10:22:07;12.78;60.00
71098;SHT35;58754;47.622;-2.986;2023-02-01T10:28:04;12.78;60.03
71098;SHT35;58754;47.622;-2.986;2023-02-01T10:30:39;12.75;60.04
71098;SHT35;58754;47.622;-2.986;2023-02-01T10:33:26;12.77;59.99
71098;SHT35;58754;47.622;-2.986;2023-02-01T10:36:01;12.78;60.02
71098;SHT35;58754;47.622;-2.986;2023-02-01T10:38:30;12.77;60.02
71098;SHT35;58754;47.622;-2.986;2023-02-01T10:41:02;12.79;60.00
71098;SHT35;58754;47.622;-2.986;2023-02-01T10:43:29;12.75;59.99
71098;SHT35;58754;47.622;-2.986;2023-02-01T10:45:56;12.79;59.99
71098;SHT35;58754;47.622;-2.986;2023-02-01T10:48:22;12.79;60.00
71098;SHT35;58754;47.622;-2.986;2023-02-01T10:51:00;12.79;60.01
71098;SHT35;58754;47.622;-2.986;2023-02-01T10:54:00;12.79;60.00
71098;SHT35;58754;47.622;-2.986;2023-02-01T10:56:25;12.78;59.93
71098;SHT35;58754;47.622;-2.986;2023-02-01T10:59:03;12.78;59.98
71098;SHT35;58754;47.622;-2.986;2023-02-01T11:01:39;12.79;59.97
71098;SHT35;58754;47.622;-2.986;2023-02-01T11:04:13;12.81;59.95
71098;SHT35;58754;47.622;-2.986;2023-02-01T11:06:43;12.78;59.95
71098;SHT35;58754;47.622;-2.986;2023-02-01T11:16:54;12.78;59.93
71098;SHT35;58754;47.622;-2.986;2023-02-01T11:19:21;12.81;59.92
71098;SHT35;58754;47.622;-2.986;2023-02-01T11:22:05;12.81;59.91
71098;SHT35;58754;47.622;-2.986;2023-02-01T11:24:34;12.79;59.89
71098;SHT35;58754;47.622;-2.986;2023-02-01T11:27:05;12.82;59.88
71098;SHT35;58754;47.622;-2.986;2023-02-01T11:29:40;12.79;59.89
71098;SHT35;58754;47.622;-2.986;2023-02-01T11:32:10;12.78;59.86
71098;SHT35;58754;47.622;-2.986;2023-02-01T11:34:41;12.81;59.89
71098;SHT35;58754;47.622;-2.986;2023-02-01T11:40:00;12.82;59.88
71098;SHT35;58754;47.622;-2.986;2023-02-01T11:42:28;12.81;59.84
71098;SHT35;58754;47.622;-2.986;2023-02-01T11:45:17;12.79;59.85
71098;SHT35;58754;47.622;-2.986;2023-02-01T11:47:42;12.81;59.86
71098;SHT35;58754;47.622;-2.986;2023-02-01T11:50:17;12.78;59.82
71098;SHT35;58754;47.622;-2.986;2023-02-01T11:53:10;12.84;59.83
71098;SHT35;58754;47.622;-2.986;2023-02-01T11:57:04;12.81;59.80
71098;SHT35;58754;47.622;-2.986;2023-02-01T12:02:26;12.84;59.81
71098;SHT35;58754;47.622;-2.986;2023-02-01T12:13:19;12.81;59.79
71098;SHT35;58754;47.622;-2.986;2023-02-01T12:16:00;12.82;59.75
71098;SHT35;58754;47.622;-2.986;2023-02-01T12:32:19;12.81;59.68
71098;SHT35;58754;47.622;-2.986;2023-02-01T12:35:10;12.81;59.68
71098;SHT35;58754;47.622;-2.986;2023-02-01T12:40:39;12.82;59.69
71098;SHT35;58754;47.622;-2.986;2023-02-01T12:43:15;12.81;59.67
71098;SHT35;58754;47.622;-2.986;2023-02-01T12:45:52;12.82;59.68
71098;SHT35;58754;47.622;-2.986;2023-02-01T12:48:33;12.81;59.66
71098;SHT35;58754;47.622;-2.986;2023-02-01T12:51:04;12.84;59.66
71098;SHT35;58754;47.622;-2.986;2023-02-01T12:53:46;12.82;59.67
71098;SHT35;58754;47.622;-2.986;2023-02-01T12:56:25;12.82;59.67
71098;SHT35;58754;47.622;-2.986;2023-02-01T12:58:54;12.84;59.65
71098;SHT35;58754;47.622;-2.986;2023-02-01T13:01:42;12.85;59.66
71098;SHT35;58754;47.622;-2.986;2023-02-01T13:07:29;12.84;59.65
71098;SHT35;58754;47.622;-2.986;2023-02-01T13:10:03;12.85;59.68
71098;SHT35;58754;47.622;-2.986;2023-02-01T13:12:38;12.84;59.68
71098;SHT35;58754;47.622;-2.986;2023-02-01T13:15:21;12.81;59.66
71098;SHT35;58754;47.622;-2.986;2023-02-01T13:17:49;12.87;59.62
71098;SHT35;58754;47.622;-2.986;2023-02-01T13:23:46;12.85;59.63
71098;SHT35;58754;47.622;-2.986;2023-02-01T13:25:54;12.84;59.63
71098;SHT35;58754;47.622;-2.986;2023-02-01T13:28:50;12.85;59.62
71098;SHT35;58754;47.622;-2.986;2023-02-01T13:36:45;12.84;59.62
71098;SHT35;58754;47.622;-2.986;2023-02-01T13:39:27;12.85;59.58
71098;SHT35;58754;47.622;-2.986;2023-02-01T13:42:13;12.85;59.59
71098;SHT35;58754;47.622;-2.986;2023-02-01T13:44:54;12.89;59.59
71098;SHT35;58754;47.622;-2.986;2023-02-01T13:47:42;12.87;59.59
71098;SHT35;58754;47.622;-2.986;2023-02-01T13:50:35;12.85;59.58
71098;SHT35;58754;47.622;-2.986;2023-02-01T13:55:36;12.89;59.55
71098;SHT35;58754;47.622;-2.986;2023-02-01T13:58:33;12.85;59.55
71098;SHT35;58754;47.622;-2.986;2023-02-01T14:03:46;12.88;59.53
71098;SHT35;58754;47.622;-2.986;2023-02-01T14:06:40;12.87;59.57
71098;SHT35;58754;47.622;-2.986;2023-02-01T14:11:53;12.88;59.54
71098;SHT35;58754;47.622;-2.986;2023-02-01T14:19:28;12.88;59.54
71098;SHT35;58754;47.622;-2.986;2023-02-01T14:21:56;12.88;59.51
71098;SHT35;58754;47.622;-2.986;2023-02-01T14:24:28;12.89;59.49
71098;SHT35;58754;47.622;-2.986;2023-02-01T14:26:57;12.91;59.49
71098;SHT35;58754;47.622;-2.986;2023-02-01T14:29:32;12.91;59.48
71098;SHT35;58754;47.622;-2.986;2023-02-01T14:32:20;12.92;59.48
71098;SHT35;58754;47.622;-2.986;2023-02-01T14:53:13;12.93;59.44
71098;SHT35;58754;47.622;-2.986;2023-02-01T15:01:24;12.92;59.46
71098;SHT35;58754;47.622;-2.986;2023-02-01T15:04:08;12.92;59.44
71098;SHT35;58754;47.622;-2.986;2023-02-01T15:06:57;12.89;59.43
71098;SHT35;58754;47.622;-2.986;2023-02-01T15:09:29;12.92;59.40
71098;SHT35;58754;47.622;-2.986;2023-02-01T15:12:16;12.92;59.41
71098;SHT35;58754;47.622;-2.986;2023-02-01T15:14:46;12.92;59.40
71098;SHT35;58754;47.622;-2.986;2023-02-01T15:17:29;12.91;59.42
71098;SHT35;58754;47.622;-2.986;2023-02-01T15:20:16;12.89;59.42
71098;SHT35;58754;47.622;-2.986;2023-02-01T15:22:56;12.93;59.42
71098;SHT35;58754;47.622;-2.986;2023-02-01T15:25:28;12.92;59.38
71098;SHT35;58754;47.622;-2.986;2023-02-01T15:27:54;12.92;59.40
71098;SHT35;58754;47.622;-2.986;2023-02-01T15:30:29;12.93;59.37
71098;SHT35;58754;47.622;-2.986;2023-02-01T15:33:16;12.92;59.36
71098;SHT35;58754;47.622;-2.986;2023-02-01T15:38:44;12.92;59.39
71098;SHT35;58754;47.622;-2.986;2023-02-01T15:41:17;12.95;59.37
71098;SHT35;58754;47.622;-2.986;2023-02-01T15:44:02;12.93;59.34
71098;SHT35;58754;47.622;-2.986;2023-02-01T15:46:30;12.93;59.35
71098;SHT35;58754;47.622;-2.986;2023-02-01T15:48:57;12.95;59.37
71098;SHT35;58754;47.622;-2.986;2023-02-01T15:51:25;12.93;59.32
71098;SHT35;58754;47.622;-2.986;2023-02-01T15:56:29;12.93;59.36
71098;SHT35;58754;47.622;-2.986;2023-02-01T15:59:00;12.93;59.37
71098;SHT35;58754;47.622;-2.986;2023-02-01T16:01:27;12.96;59.35
71098;SHT35;58754;47.622;-2.986;2023-02-01T16:04:17;12.96;59.36
71098;SHT35;58754;47.622;-2.986;2023-02-01T16:06:52;12.93;59.35
71098;SHT35;58754;47.622;-2.986;2023-02-01T16:09:22;12.96;59.37
71098;SHT35;58754;47.622;-2.986;2023-02-01T16:11:58;12.95;59.36
71098;SHT35;58754;47.622;-2.986;2023-02-01T16:14:24;12.96;59.35
71098;SHT35;58754;47.622;-2.986;2023-02-01T16:16:52;12.95;59.30
71098;SHT35;58754;47.622;-2.986;2023-02-01T16:19:18;12.96;59.35
71098;SHT35;58754;47.622;-2.986;2023-02-01T16:21:44;12.95;59.33
71098;SHT35;58754;47.622;-2.986;2023-02-01T16:24:11;12.95;59.34
71098;SHT35;58754;47.622;-2.986;2023-02-01T16:26:37;12.95;59.34
71098;SHT35;58754;47.622;-2.986;2023-02-01T16:29:04;12.98;59.35
71098;SHT35;58754;47.622;-2.986;2023-02-01T16:31:35;12.93;59.30
71098;SHT35;58754;47.622;-2.986;2023-02-01T16:34:01;12.98;59.33
71098;SHT35;58754;47.622;-2.986;2023-02-01T16:36:27;12.96;59.36
71098;SHT35;58754;47.622;-2.986;2023-02-01T16:38:54;12.96;59.34
71098;SHT35;58754;47.622;-2.986;2023-02-01T16:41:21;12.98;59.32
71098;SHT35;58754;47.622;-2.986;2023-02-01T16:43:53;12.98;59.32
71098;SHT35;58754;47.622;-2.986;2023-02-01T16:46:21;12.99;59.33
71098;SHT35;58754;47.622;-2.986;2023-02-01T16:48:55;12.99;59.32
71098;SHT35;58754;47.622;-2.986;2023-02-01T16:51:23;12.98;59.32
71098;SHT35;58754;47.622;-2.986;2023-02-01T16:53:50;12.98;59.32
71098;SHT35;58754;47.622;-2.986;2023-02-01T16:56:19;12.99;59.33
71098;SHT35;58754;47.622;-2.986;2023-02-01T16:58:45;12.96;59.35
71098;SHT35;58754;47.622;-2.986;2023-02-01T17:01:14;12.96;59.35
71098;SHT35;58754;47.622;-2.986;2023-02-01T17:03:40;12.99;59.36
71098;SHT35;58754;47.622;-2.986;2023-02-01T17:06:08;12.95;59.36
71098;SHT35;58754;47.622;-2.986;2023-02-01T17:08:36;12.98;59.31
71098;SHT35;58754;47.622;-2.986;2023-02-01T17:11:04;12.96;59.36
71098;SHT35;58754;47.622;-2.986;2023-02-01T17:13:32;12.99;59.35
71098;SHT35;58754;47.622;-2.986;2023-02-01T17:16:00;12.99;59.34
71098;SHT35;58754;47.622;-2.986;2023-02-01T17:18:28;12.99;59.38
71098;SHT35;58754;47.622;-2.986;2023-02-01T17:20:59;12.99;59.36
71098;SHT35;58754;47.622;-2.986;2023-02-01T17:23:26;12.99;59.34
71098;SHT35;58754;47.622;-2.986;2023-02-01T17:25:52;12.99;59.36
71098;SHT35;58754;47.622;-2.986;2023-02-01T17:28:18;12.99;59.34
71098;SHT35;58754;47.622;-2.986;2023-02-01T17:30:44;12.99;59.31
71098;SHT35;58754;47.622;-2.986;2023-02-01T17:35:45;13.00;59.35
71098;SHT35;58754;47.622;-2.986;2023-02-01T17:38:12;12.99;59.34
71098;SHT35;58754;47.622;-2.986;2023-02-01T17:40:38;13.00;59.33
71098;SHT35;58754;47.622;-2.986;2023-02-01T17:43:04;13.00;59.34
71098;SHT35;58754;47.622;-2.986;2023-02-01T17:45:35;12.98;59.33
71098;SHT35;58754;47.622;-2.986;2023-02-01T17:48:04;13.00;59.34
71098;SHT35;58754;47.622;-2.986;2023-02-01T17:50:31;13.00;59.34
71098;SHT35;58754;47.622;-2.986;2023-02-01T17:52:58;13.03;59.30
71098;SHT35;58754;47.622;-2.986;2023-02-01T17:55:25;13.02;59.33
71098;SHT35;58754;47.622;-2.986;2023-02-01T17:57:51;12.98;59.35
71098;SHT35;58754;47.622;-2.986;2023-02-01T18:00:18;12.98;59.34